createdAt,value
2022-09-23T00:01:18.199Z,14.11
2022-09-23T00:03:51.805Z,14.10
2022-09-23T00:06:45.138Z,14.09
2022-09-23T00:09:17.482Z,14.08
2022-09-23T00:12:11.163Z,14.17
2022-09-23T00:14:45.879Z,14.18
2022-09-23T00:17:23.774Z,14.07
2022-09-23T00:19:55.598Z,14.12
2022-09-23T00:22:27.781Z,14.18
2022-09-23T00:24:59.607Z,14.24
2022-09-23T00:27:34.080Z,14.34
2022-09-23T00:30:09.135Z,14.41
2022-09-23T00:32:41.114Z,14.49
2022-09-23T00:35:13.182Z,14.49
2022-09-23T00:37:45.087Z,14.47
2022-09-23T00:40:17.596Z,14.38
2022-09-23T00:42:52.156Z,14.34
2022-09-23T00:45:24.185Z,14.32
2022-09-23T00:47:59.238Z,14.28
2022-09-23T00:50:37.413Z,14.20
2022-09-23T00:53:12.293Z,14.14
2022-09-23T00:55:56.784Z,14.14
2022-09-23T00:58:43.040Z,14.13
2022-09-23T01:01:15.397Z,14.18
2022-09-23T01:03:50.358Z,14.27
2022-09-23T01:06:25.380Z,14.34
2022-09-23T01:08:57.410Z,14.39
2022-09-23T01:11:42.247Z,14.43
2022-09-23T01:14:36.559Z,14.50
2022-09-23T01:17:15.999Z,14.51
2022-09-23T01:20:10.811Z,14.57
2022-09-23T01:22:50.734Z,14.65
2022-09-23T01:25:35.008Z,14.69
2022-09-23T01:28:30.383Z,14.72
2022-09-23T01:31:09.547Z,14.78
2022-09-23T01:33:58.134Z,14.85
2022-09-23T01:36:37.787Z,14.90
2022-09-23T01:39:14.146Z,14.90
2022-09-23T01:42:01.687Z,14.86
2022-09-23T01:44:44.725Z,14.81
2022-09-23T01:47:20.420Z,14.73
2022-09-23T01:49:57.226Z,14.66
2022-09-23T01:52:33.626Z,14.63
2022-09-23T01:55:12.027Z,14.62
2022-09-23T01:58:01.136Z,14.63
2022-09-23T02:00:40.763Z,14.59
2022-09-23T02:03:18.913Z,14.59
2022-09-23T02:06:01.912Z,14.69
2022-09-23T02:08:39.308Z,14.70
2022-09-23T02:11:14.021Z,14.73
2022-09-23T02:13:49.715Z,14.76
2022-09-23T02:16:26.224Z,14.82
2022-09-23T02:19:02.665Z,14.75
2022-09-23T02:21:37.531Z,14.90
2022-09-23T02:24:13.994Z,14.91
2022-09-23T02:26:53.032Z,14.97
2022-09-23T02:29:31.576Z,14.95
2022-09-23T02:32:14.315Z,14.87
2022-09-23T02:34:54.627Z,14.85
2022-09-23T02:37:38.933Z,14.71
2022-09-23T02:40:22.948Z,14.51
2022-09-23T02:43:06.932Z,14.43
2022-09-23T02:45:39.219Z,14.31
2022-09-23T02:48:15.262Z,14.23
2022-09-23T02:50:56.180Z,14.15
2022-09-23T02:53:28.039Z,14.01
2022-09-23T02:55:59.732Z,13.92
2022-09-23T02:58:32.105Z,13.94
2022-09-23T03:01:12.084Z,13.93
2022-09-23T03:03:54.858Z,13.93
2022-09-23T03:06:33.477Z,14.04
2022-09-23T03:09:14.601Z,14.18
2022-09-23T03:11:51.731Z,14.36
2022-09-23T03:14:31.967Z,14.39
2022-09-23T03:17:07.466Z,14.36
2022-09-23T03:19:48.437Z,14.36
2022-09-23T03:22:34.762Z,14.41
2022-09-23T03:25:12.626Z,14.44
2022-09-23T03:27:46.545Z,14.44
2022-09-23T03:30:21.782Z,14.44
2022-09-23T03:32:57.934Z,14.48
2022-09-23T03:35:55.084Z,14.47
2022-09-23T03:38:34.199Z,14.56
2022-09-23T03:41:17.126Z,14.63
2022-09-23T03:43:49.106Z,14.70
2022-09-23T03:46:30.422Z,14.70
2022-09-23T03:49:10.598Z,14.66
2022-09-23T03:51:44.701Z,14.64
2022-09-23T03:54:30.049Z,14.73
2022-09-23T03:57:04.773Z,14.76
2022-09-23T03:59:36.953Z,14.82
2022-09-23T04:02:09.531Z,14.84
2022-09-23T04:04:41.617Z,14.88
2022-09-23T04:07:14.122Z,14.95
2022-09-23T04:09:45.901Z,15.05
2022-09-23T04:12:18.878Z,15.20
2022-09-23T04:14:50.676Z,15.35
2022-09-23T04:17:22.552Z,15.48
2022-09-23T04:19:54.480Z,15.53
2022-09-23T04:22:26.580Z,15.62
2022-09-23T04:24:58.478Z,15.53
2022-09-23T04:27:34.193Z,14.57
2022-09-23T04:30:10.563Z,13.46
2022-09-23T04:32:43.051Z,12.80
2022-09-23T04:35:15.087Z,13.25
2022-09-23T04:37:50.373Z,13.86
2022-09-23T04:40:22.263Z,14.21
2022-09-23T04:42:56.487Z,14.39
2022-09-23T04:45:28.787Z,14.50
2022-09-23T04:48:00.732Z,14.60
2022-09-23T04:50:33.980Z,14.64
2022-09-23T04:53:06.389Z,14.73
2022-09-23T04:55:38.956Z,14.80
2022-09-23T04:58:11.718Z,14.80
2022-09-23T05:00:44.755Z,14.75
2022-09-23T05:03:17.182Z,14.81
2022-09-23T05:05:48.889Z,14.75
2022-09-23T05:08:22.201Z,14.78
2022-09-23T05:10:59.386Z,15.03
2022-09-23T05:13:31.908Z,15.11
2022-09-23T05:16:06.786Z,15.09
2022-09-23T05:18:41.304Z,15.20
2022-09-23T05:21:14.558Z,15.35
2022-09-23T05:23:52.473Z,15.53
2022-09-23T05:26:25.695Z,15.59
2022-09-23T05:29:00.612Z,15.62
2022-09-23T05:31:33.096Z,15.77
2022-09-23T05:34:06.411Z,15.67
2022-09-23T05:36:39.665Z,14.82
2022-09-23T05:39:11.628Z,13.92
2022-09-23T05:41:43.637Z,13.23
2022-09-23T05:44:15.453Z,12.88
2022-09-23T05:46:47.575Z,13.51
2022-09-23T05:49:19.710Z,14.10
2022-09-23T05:51:51.605Z,14.56
2022-09-23T05:54:23.581Z,14.99
2022-09-23T05:56:55.778Z,15.29
2022-09-23T05:59:27.664Z,15.38
2022-09-23T06:01:59.986Z,15.51
2022-09-23T06:04:31.886Z,15.64
2022-09-23T06:07:03.880Z,15.70
2022-09-23T06:09:36.887Z,15.70
2022-09-23T06:12:09.778Z,15.71
2022-09-23T06:14:41.655Z,15.85
2022-09-23T06:17:13.478Z,15.95
2022-09-23T06:19:45.306Z,16.02
2022-09-23T06:22:18.738Z,16.15
2022-09-23T06:24:50.588Z,16.02
2022-09-23T06:27:22.306Z,15.17
2022-09-23T06:29:54.331Z,14.30
2022-09-23T06:32:26.155Z,13.61
2022-09-23T06:34:58.061Z,13.34
2022-09-23T06:37:30.710Z,14.09
2022-09-23T06:40:05.509Z,14.90
2022-09-23T06:42:37.261Z,15.48
2022-09-23T06:45:15.095Z,15.87
2022-09-23T06:47:47.223Z,16.21
2022-09-23T06:50:19.188Z,16.32
2022-09-23T06:52:56.181Z,16.38
2022-09-23T06:55:28.785Z,15.59
2022-09-23T06:58:01.601Z,14.67
2022-09-23T07:00:33.376Z,13.99
2022-09-23T07:03:15.774Z,13.74
2022-09-23T07:05:58.864Z,14.59
2022-09-23T07:08:33.878Z,15.34
2022-09-23T07:11:13.541Z,16.00
2022-09-23T07:13:45.984Z,16.43
2022-09-23T07:16:18.079Z,16.74
2022-09-23T07:18:50.241Z,16.76
2022-09-23T07:21:22.152Z,15.97
2022-09-23T07:23:53.843Z,15.16
2022-09-23T07:26:26.287Z,14.52
2022-09-23T07:29:05.012Z,14.06
2022-09-23T07:31:40.021Z,14.39
2022-09-23T07:34:13.279Z,15.36
2022-09-23T07:36:45.206Z,16.22
2022-09-23T07:39:17.356Z,16.85
2022-09-23T07:41:52.169Z,17.26
2022-09-23T07:44:45.324Z,17.17
2022-09-23T07:47:17.786Z,16.26
2022-09-23T07:49:49.750Z,15.48
2022-09-23T07:52:21.647Z,14.94
2022-09-23T07:54:53.792Z,14.50
2022-09-23T07:57:25.632Z,14.42
2022-09-23T08:00:09.657Z,15.44
2022-09-23T08:03:02.074Z,16.47
2022-09-23T08:05:33.941Z,17.06
2022-09-23T08:08:07.197Z,17.28
2022-09-23T08:10:39.461Z,16.70
2022-09-23T08:13:11.389Z,16.04
2022-09-23T08:15:44.361Z,15.55
2022-09-23T08:18:16.144Z,15.20
2022-09-23T08:20:48.245Z,14.95
2022-09-23T08:23:21.117Z,14.79
2022-09-23T08:26:00.204Z,15.26
2022-09-23T08:28:33.889Z,16.39
2022-09-23T08:31:06.398Z,17.17
2022-09-23T08:33:41.196Z,17.60
2022-09-23T08:36:14.144Z,17.05
2022-09-23T08:38:49.150Z,16.34
2022-09-23T08:41:29.105Z,15.85
2022-09-23T08:44:13.135Z,15.54
2022-09-23T08:46:51.108Z,15.25
2022-09-23T08:49:32.769Z,15.05
2022-09-23T08:52:15.301Z,14.94
2022-09-23T08:54:50.794Z,15.21
2022-09-23T08:57:41.470Z,16.53
2022-09-23T09:00:21.220Z,17.69
2022-09-23T09:02:55.188Z,18.29
2022-09-23T09:05:31.088Z,18.00
2022-09-23T09:08:04.927Z,17.60
2022-09-23T09:10:44.919Z,17.25
2022-09-23T09:13:29.691Z,16.94
2022-09-23T09:17:01.400Z,16.72
2022-09-23T09:19:55.825Z,16.52
2022-09-23T09:22:42.939Z,16.25
2022-09-23T09:25:36.456Z,16.05
2022-09-23T09:28:19.049Z,15.84
2022-09-23T09:30:55.052Z,15.71
2022-09-23T09:33:33.246Z,15.64
2022-09-23T09:36:20.469Z,15.64
2022-09-23T09:38:53.462Z,15.64
2022-09-23T09:41:27.648Z,15.67
2022-09-23T09:44:01.113Z,15.77
2022-09-23T09:46:57.708Z,15.94
2022-09-23T09:49:46.810Z,16.11
2022-09-23T09:52:29.815Z,16.12
2022-09-23T09:55:25.373Z,16.08
2022-09-23T09:58:01.961Z,15.94
2022-09-23T10:00:43.401Z,15.74
2022-09-23T10:03:32.485Z,15.62
2022-09-23T10:06:17.415Z,15.68
2022-09-23T10:09:14.824Z,15.84
2022-09-23T10:12:13.203Z,16.08
2022-09-23T10:14:45.549Z,16.32
2022-09-23T10:17:24.227Z,16.47
2022-09-23T10:20:18.373Z,16.65
2022-09-23T10:22:50.592Z,16.72
2022-09-23T10:25:26.692Z,16.63
2022-09-23T10:27:58.633Z,16.46
2022-09-23T10:30:31.032Z,16.16
2022-09-23T10:33:03.658Z,15.86
2022-09-23T10:35:36.120Z,15.62
2022-09-23T10:38:12.680Z,15.44
2022-09-23T10:41:06.852Z,15.28
2022-09-23T10:44:07.977Z,15.15
2022-09-23T10:46:42.361Z,14.93
2022-09-23T10:49:39.566Z,14.63
2022-09-23T10:52:39.196Z,14.52
2022-09-23T10:55:27.814Z,15.36
2022-09-23T10:58:21.585Z,16.05
2022-09-23T11:01:03.883Z,16.52
2022-09-23T11:03:54.309Z,16.80
2022-09-23T11:06:33.743Z,17.11
2022-09-23T11:09:28.161Z,17.20
2022-09-23T11:12:14.982Z,16.38
2022-09-23T11:15:03.674Z,15.75
2022-09-23T11:17:52.083Z,15.40
2022-09-23T11:20:36.698Z,15.13
2022-09-23T11:23:35.087Z,14.94
2022-09-23T11:26:19.946Z,14.89
2022-09-23T11:29:12.394Z,14.95
2022-09-23T11:31:57.356Z,14.96
2022-09-23T11:34:55.103Z,15.00
2022-09-23T11:37:31.045Z,15.04
2022-09-23T11:40:06.047Z,15.09
2022-09-23T11:42:55.142Z,15.13
2022-09-23T11:45:32.171Z,15.15
2022-09-23T11:48:11.903Z,15.15
2022-09-23T11:50:50.129Z,15.18
2022-09-23T11:53:38.631Z,15.19
2022-09-23T11:56:32.134Z,15.11
2022-09-23T11:59:11.812Z,14.98
2022-09-23T12:01:49.854Z,14.84
2022-09-23T12:04:31.324Z,14.76
2022-09-23T12:07:12.343Z,14.73
2022-09-23T12:09:58.534Z,14.72
2022-09-23T12:12:42.289Z,14.68
2022-09-23T12:15:32.120Z,14.55
2022-09-23T12:18:22.328Z,14.39
2022-09-23T12:21:27.167Z,14.25
2022-09-23T12:24:49.009Z,14.03
2022-09-23T12:27:31.990Z,14.30
2022-09-23T12:30:35.202Z,15.83
2022-09-23T12:33:30.033Z,16.99
2022-09-23T12:36:30.483Z,17.81
2022-09-23T12:39:30.004Z,18.37
2022-09-23T12:42:06.418Z,18.48
2022-09-23T12:45:20.392Z,17.82
2022-09-23T12:48:43.096Z,17.16
2022-09-23T12:51:37.440Z,16.58
2022-09-23T12:54:30.110Z,16.27
2022-09-23T12:57:22.159Z,16.11
2022-09-23T12:59:59.446Z,16.06
2022-09-23T13:03:16.319Z,15.84
2022-09-23T13:06:23.766Z,15.48
2022-09-23T13:09:14.442Z,15.13
2022-09-23T13:11:50.435Z,15.16
2022-09-23T13:14:27.812Z,16.20
2022-09-23T13:17:02.402Z,17.30
2022-09-23T13:19:58.491Z,18.14
2022-09-23T13:22:58.289Z,18.68
2022-09-23T13:25:52.295Z,18.07
2022-09-23T13:28:57.948Z,17.56
2022-09-23T13:31:46.038Z,17.15
2022-09-23T13:34:33.937Z,16.78
2022-09-23T13:37:30.652Z,16.46
2022-09-23T13:40:21.110Z,16.23
2022-09-23T13:42:58.589Z,16.09
2022-09-23T13:45:51.087Z,15.92
2022-09-23T13:48:45.404Z,15.81
2022-09-23T13:51:30.476Z,15.74
2022-09-23T13:54:29.874Z,15.63
2022-09-23T13:57:27.838Z,15.55
2022-09-23T14:00:23.375Z,15.61
2022-09-23T14:03:28.650Z,15.74
2022-09-23T14:06:07.209Z,15.86
2022-09-23T14:08:51.485Z,15.91
2022-09-23T14:11:44.647Z,15.97
2022-09-23T14:14:39.565Z,15.99
2022-09-23T14:17:25.089Z,16.03
2022-09-23T14:20:14.102Z,16.10
2022-09-23T14:22:47.257Z,16.14
2022-09-23T14:25:40.235Z,16.16
2022-09-23T14:28:27.483Z,16.23
2022-09-23T14:31:03.345Z,16.32
2022-09-23T14:33:55.823Z,16.37
2022-09-23T14:36:56.674Z,16.36
2022-09-23T14:39:41.173Z,16.39
2022-09-23T14:42:26.171Z,16.34
2022-09-23T14:45:20.944Z,16.34
2022-09-23T14:48:18.636Z,16.32
2022-09-23T14:51:03.509Z,16.24
2022-09-23T14:53:55.546Z,16.01
2022-09-23T14:56:45.335Z,15.76
2022-09-23T14:59:38.192Z,15.53
2022-09-23T15:02:36.119Z,15.29
2022-09-23T15:05:42.593Z,15.04
2022-09-23T15:08:37.002Z,14.82
2022-09-23T15:11:22.512Z,14.62
2022-09-23T15:14:36.618Z,14.45
2022-09-23T15:17:09.120Z,14.76
2022-09-23T15:20:05.078Z,16.09
2022-09-23T15:22:49.799Z,17.31
2022-09-23T15:25:43.880Z,18.23
2022-09-23T15:28:35.883Z,18.57
2022-09-23T15:31:27.923Z,17.80
2022-09-23T15:34:11.293Z,17.05
2022-09-23T15:37:03.650Z,16.44
2022-09-23T15:39:55.649Z,16.01
2022-09-23T15:42:38.011Z,15.70
2022-09-23T15:45:14.598Z,15.49
2022-09-23T15:48:12.656Z,15.27
2022-09-23T15:51:08.185Z,15.03
2022-09-23T15:54:00.170Z,14.76
2022-09-23T15:56:52.204Z,14.50
2022-09-23T15:59:27.149Z,14.28
2022-09-23T16:02:24.794Z,14.39
2022-09-23T16:05:23.797Z,15.67
2022-09-23T16:08:09.143Z,16.67
2022-09-23T16:10:54.999Z,17.30
2022-09-23T16:13:47.155Z,17.45
2022-09-23T16:16:39.295Z,16.57
2022-09-23T16:19:14.805Z,15.77
2022-09-23T16:22:07.198Z,15.11
2022-09-23T16:24:38.931Z,14.64
2022-09-23T16:27:31.764Z,14.14
2022-09-23T16:30:14.550Z,14.05
2022-09-23T16:32:51.751Z,14.98
2022-09-23T16:35:43.817Z,15.91
2022-09-23T16:38:36.937Z,16.48
2022-09-23T16:41:31.550Z,16.86
2022-09-23T16:44:05.512Z,16.87
2022-09-23T16:46:57.815Z,15.90
2022-09-23T16:49:49.765Z,14.90
2022-09-23T16:52:42.047Z,14.11
2022-09-23T16:55:34.195Z,13.45
2022-09-23T16:58:26.254Z,13.25
2022-09-23T17:01:39.376Z,14.21
2022-09-23T17:04:12.177Z,14.98
2022-09-23T17:07:04.177Z,15.41
2022-09-23T17:09:56.222Z,15.63
2022-09-23T17:12:48.219Z,15.87
2022-09-23T17:15:40.790Z,16.00
2022-09-23T17:18:23.337Z,15.92
2022-09-23T17:21:15.479Z,14.91
2022-09-23T17:24:08.128Z,13.92
2022-09-23T17:26:56.812Z,13.17
2022-09-23T17:29:48.759Z,12.55
2022-09-23T17:32:40.923Z,12.41
2022-09-23T17:35:32.996Z,13.49
2022-09-23T17:38:07.466Z,14.30
2022-09-23T17:41:01.324Z,14.83
2022-09-23T17:44:00.916Z,15.14
2022-09-23T17:46:53.016Z,15.37
2022-09-23T17:49:47.657Z,15.25
2022-09-23T17:52:29.595Z,14.27
2022-09-23T17:55:21.695Z,13.30
2022-09-23T17:58:13.779Z,12.55
2022-09-23T18:01:06.420Z,11.94
2022-09-23T18:03:59.568Z,11.75
2022-09-23T18:06:52.073Z,12.64
2022-09-23T18:09:44.216Z,13.47
2022-09-23T18:12:37.409Z,13.99
2022-09-23T18:15:29.755Z,14.34
2022-09-23T18:18:22.937Z,14.67
2022-09-23T18:21:15.032Z,14.90
2022-09-23T18:27:20.663Z,13.60
2022-09-23T18:30:14.330Z,12.63
2022-09-23T18:32:56.237Z,11.93
2022-09-23T18:35:48.654Z,11.63
2022-09-23T18:38:40.882Z,12.56
2022-09-23T18:41:34.213Z,13.35
2022-09-23T18:44:26.932Z,13.85
2022-09-23T18:47:32.962Z,14.18
2022-09-23T18:50:32.726Z,14.46
2022-09-23T18:53:25.075Z,14.33
2022-09-23T18:56:19.635Z,13.24
2022-09-23T18:59:18.314Z,12.25
2022-09-23T19:02:02.993Z,11.55
2022-09-23T19:04:55.558Z,11.32
2022-09-23T19:07:37.649Z,12.20
2022-09-23T19:10:29.798Z,13.01
2022-09-23T19:13:24.688Z,13.49
2022-09-23T19:16:13.464Z,13.83
2022-09-23T19:19:06.838Z,14.15
2022-09-23T19:21:59.572Z,14.37
2022-09-23T19:24:51.760Z,14.28
2022-09-23T19:27:44.062Z,13.20
2022-09-23T19:30:37.331Z,12.21
2022-09-23T19:33:29.306Z,11.46
2022-09-23T19:36:26.936Z,11.18
2022-09-23T19:39:22.591Z,12.16
2022-09-23T19:42:14.731Z,13.01
2022-09-23T19:45:08.044Z,13.46
2022-09-23T19:48:00.929Z,13.67
2022-09-23T19:50:49.763Z,13.86
2022-09-23T19:53:45.782Z,14.02
2022-09-23T19:56:38.933Z,14.13
2022-09-23T19:59:31.355Z,14.03
2022-09-23T20:02:23.570Z,13.09
2022-09-23T20:05:20.267Z,12.14
2022-09-23T20:08:11.168Z,11.45
2022-09-23T20:11:11.656Z,11.24
2022-09-23T20:14:06.396Z,12.16
2022-09-23T20:17:00.156Z,12.97
2022-09-23T20:19:52.138Z,13.55
2022-09-23T20:22:43.162Z,13.88
2022-09-23T20:25:49.255Z,14.13
2022-09-23T20:28:41.356Z,14.40
2022-09-23T20:31:35.251Z,14.24
2022-09-23T20:34:29.795Z,13.21
2022-09-23T20:37:23.550Z,12.27
2022-09-23T20:40:16.256Z,11.54
2022-09-23T20:43:08.346Z,11.26
2022-09-23T20:46:01.850Z,12.12
2022-09-23T20:48:56.774Z,12.96
2022-09-23T20:51:50.125Z,13.48
2022-09-23T20:54:35.127Z,13.83
2022-09-23T20:57:28.122Z,14.09
2022-09-23T21:00:20.484Z,14.22
2022-09-23T21:03:12.447Z,14.16
2022-09-23T21:06:05.781Z,13.16
2022-09-23T21:08:58.104Z,12.21
2022-09-23T21:11:50.101Z,11.46
2022-09-23T21:14:42.278Z,11.16
2022-09-23T21:17:34.641Z,11.98
2022-09-23T21:20:26.708Z,12.87
2022-09-23T21:23:21.787Z,13.45
2022-09-23T21:26:17.578Z,13.78
2022-09-23T21:29:09.971Z,14.04
2022-09-23T21:32:02.113Z,14.19
2022-09-23T21:34:54.248Z,14.45
2022-09-23T21:37:46.642Z,14.35
2022-09-23T21:40:56.141Z,13.36
2022-09-23T21:43:49.682Z,12.36
2022-09-23T21:46:41.885Z,11.69
2022-09-23T21:49:34.288Z,11.51
2022-09-23T21:52:07.305Z,12.44
2022-09-23T21:54:59.400Z,13.39
2022-09-23T21:57:51.663Z,13.94
2022-09-23T22:00:44.045Z,14.37
2022-09-23T22:03:36.653Z,14.67
2022-09-23T22:06:13.964Z,14.83
2022-09-23T22:09:09.295Z,14.86
2022-09-23T22:12:09.948Z,14.94
2022-09-23T22:15:02.061Z,14.75
2022-09-23T22:17:54.748Z,13.70
2022-09-23T22:20:47.906Z,12.72
2022-09-23T22:23:29.748Z,12.05
2022-09-23T22:26:21.925Z,11.84
2022-09-23T22:29:33.807Z,12.82
2022-09-23T22:32:54.387Z,13.65
2022-09-23T22:35:48.296Z,14.23
2022-09-23T22:38:43.934Z,14.63
2022-09-23T22:41:28.798Z,14.60
2022-09-23T22:44:21.356Z,13.51
2022-09-23T22:47:03.715Z,12.48
2022-09-23T22:49:55.754Z,11.52
2022-09-23T22:52:49.258Z,11.11
2022-09-23T22:55:43.181Z,12.02
2022-09-23T22:58:35.154Z,12.88
2022-09-23T23:01:27.404Z,13.47
2022-09-23T23:04:22.371Z,13.83
2022-09-23T23:07:16.586Z,14.15
2022-09-23T23:10:10.524Z,14.48
2022-09-23T23:13:03.973Z,14.37
2022-09-23T23:15:55.933Z,13.33
2022-09-23T23:18:48.087Z,12.33
2022-09-23T23:21:43.210Z,11.63
2022-09-23T23:24:28.644Z,11.44
2022-09-23T23:27:20.794Z,12.33
2022-09-23T23:30:08.456Z,12.91
2022-09-23T23:33:00.482Z,13.31
2022-09-23T23:35:54.060Z,13.60
2022-09-23T23:38:49.950Z,13.81
2022-09-23T23:41:42.843Z,13.99
2022-09-23T23:44:34.982Z,14.39
2022-09-23T23:47:27.571Z,14.67
2022-09-23T23:50:19.577Z,14.86
2022-09-23T23:53:11.997Z,14.72
2022-09-23T23:56:07.764Z,13.69
2022-09-23T23:59:02.530Z,12.67
